Gwynneville, Indiana
Current Conditions -  °F | °C
As of 10:53 PM on Tuesday 25 Nov 2014 (Local Time) from KGEZ Reporting Station
Overcast Overcast  
Wind Chill: 25°   Ceiling: 1500
Heat Index: 30°   Visibility: 10mi
Dew Point: 23°   Wind: 5mph
Humidity: 75%   Direction: 360°N
Pressure: 30.19"   Gusts: NA
Location:  39.66°N, 85.65°W
Report Text: KGEZ 260353Z AUTO 36004KT 10SM OVC015 M01/M05 A3019 RMK AO2 SLP231 T10111050
Loading
Personal Weather Stations






























Interactive Weather Map New forecast layout! Learn more

10-Day Weather Forecast

Advertisements
Track Severe Weather on mobile